CA-0463 weather

Public forecast

Using degrees Celsius for public forecast. Weather courtesy of forecast.io.

Closest aviation weather report (METAR) to Saint-François-de-Laval (Laval Aviation)

Closest report is Montréal / Saint-Hubert Airport, 12.4 nm (22.9 km) SE. Retrieved 2020/08/15 18:00 UTC (39 minutes ago):

CYHU 151800Z AUTO 05008KT 9SM CLR 26/18 A3006 RMK SLP181 DENSITY ALT 1200FT

Closest aviation forecast (TAF) to Saint-François-de-Laval (Laval Aviation)

Closest forecast is Montréal / Saint-Hubert Airport, 12.4 nm (22.9 km) SE. Retrieved 2020/08/15 18:45 UTC (0 seconds ago):

TAF CYHU 151742Z 1518/1618 04008KT P6SM FEW050 FM160300 10008KT P6SM SCT070 TEMPO 1603/1612 BKN070 BECMG 1604/1606 15008KT FM161200 16010KT P6SM FEW040 BKN080 FM161600 16012KT P6SM SCT040 RMK FCST BASED ON AUTO OBS NXT FCST BY 160000Z